Time;durP1;ratioP1;P1;durP2;ratioP2;P2;SDS_P1;SDS_P2;PMS_P1;PMS_P2;Temp;Humidity;BMP_temperature;BMP_pressure;BME280_temperature;BME280_humidity;BME280_pressure;Samples;Min_cycle;Max_cycle;Signal;HPM_P1;HPM_P2
2023/07/20 00:01:59;;;;;;;3.92;3.00;;;;;;;;;;4994783;28;20112;-77
2023/07/20 00:04:25;;;;;;;4.70;2.95;;;;;;;;;;4997737;28;20052;-77
2023/07/20 00:06:51;;;;;;;4.20;3.05;;;;;;;;;;4997749;28;20550;-77
2023/07/20 00:09:17;;;;;;;4.13;3.05;;;;;;;;;;4981797;28;20395;-77
2023/07/20 00:11:50;;;;;;;4.90;3.05;;;;;;;;;;4997485;28;20046;-77
2023/07/20 00:14:16;;;;;;;4.57;3.35;;;;;;;;;;4996949;28;20042;-77
2023/07/20 00:16:42;;;;;;;4.88;3.50;;;;;;;;;;4975735;28;20034;-78
2023/07/20 00:19:08;;;;;;;4.43;3.45;;;;;;;;;;4981096;28;20490;-77
2023/07/20 00:21:35;;;;;;;4.38;3.30;;;;;;;;;;4997605;28;20380;-77
2023/07/20 00:24:01;;;;;;;4.15;2.97;;;;;;;;;;4996891;28;20041;-77
2023/07/20 00:26:27;;;;;;;4.32;3.30;;;;;;;;;;4997308;28;20129;-77
2023/07/20 00:28:53;;;;;;;3.88;3.22;;;;;;;;;;4997144;28;20057;-77
2023/07/20 00:31:19;;;;;;;4.85;3.35;;;;;;;;;;4997043;28;20072;-77
2023/07/20 00:33:45;;;;;;;4.85;3.45;;;;;;;;;;4997360;28;20521;-77
2023/07/20 00:36:11;;;;;;;4.82;3.92;;;;;;;;;;5014686;28;20510;-77
2023/07/20 00:38:37;;;;;;;4.20;3.40;;;;;;;;;;4997371;28;20565;-77
2023/07/20 00:41:03;;;;;;;4.15;3.53;;;;;;;;;;4996906;28;20394;-77
2023/07/20 00:43:29;;;;;;;4.18;3.30;;;;;;;;;;4979685;28;20072;-77
2023/07/20 00:45:56;;;;;;;5.80;3.28;;;;;;;;;;4996858;28;20038;-77
2023/07/20 00:48:22;;;;;;;6.10;3.67;;;;;;;;;;4996856;28;20120;-77
2023/07/20 00:50:48;;;;;;;5.22;3.47;;;;;;;;;;4996714;28;20045;-77
2023/07/20 00:53:14;;;;;;;5.47;3.60;;;;;;;;;;4996676;28;20038;-77
2023/07/20 00:55:40;;;;;;;4.90;3.85;;;;;;;;;;4996705;28;20080;-77
2023/07/20 00:58:06;;;;;;;5.47;3.83;;;;;;;;;;5014144;28;20046;-77
2023/07/20 01:00:33;;;;;;;4.85;4.18;;;;;;;;;;5014197;28;20046;-77
2023/07/20 01:02:59;;;;;;;5.53;4.00;;;;;;;;;;5014343;28;20169;-77
2023/07/20 01:05:40;;;;;;;4.93;3.90;;;;;;;;;;4996511;28;20041;-77
2023/07/20 01:08:09;;;;;;;5.60;4.43;;;;;;;;;;4979966;28;20054;-77
2023/07/20 01:10:36;;;;;;;6.55;4.43;;;;;;;;;;5013840;28;20046;-77
2023/07/20 01:13:02;;;;;;;5.78;4.72;;;;;;;;;;4995625;28;20056;-77
2023/07/20 01:15:28;;;;;;;5.97;3.95;;;;;;;;;;4996190;28;20104;-77
2023/07/20 01:17:54;;;;;;;4.85;4.00;;;;;;;;;;4996188;28;20105;-77
2023/07/20 01:20:22;;;;;;;5.85;4.53;;;;;;;;;;4995927;28;20048;-77
2023/07/20 01:23:01;;;;;;;6.30;4.78;;;;;;;;;;5014215;28;20049;-77
2023/07/20 01:25:46;;;;;;;6.07;4.85;;;;;;;;;;4979948;28;20397;-77
2023/07/20 01:28:12;;;;;;;7.03;5.03;;;;;;;;;;4995612;28;20050;-77
2023/07/20 01:30:45;;;;;;;7.38;5.00;;;;;;;;;;4979822;28;20068;-77
2023/07/20 01:33:13;;;;;;;6.30;4.75;;;;;;;;;;4995823;28;20117;-77
2023/07/20 01:35:41;;;;;;;7.28;5.60;;;;;;;;;;4995881;28;20030;-77
2023/07/20 01:38:07;;;;;;;6.28;4.80;;;;;;;;;;4995647;28;20054;-77
2023/07/20 01:40:33;;;;;;;6.60;4.97;;;;;;;;;;4995941;28;20042;-77
2023/07/20 01:43:00;;;;;;;6.50;5.20;;;;;;;;;;4996168;28;20402;-77
2023/07/20 01:45:26;;;;;;;8.43;5.28;;;;;;;;;;4995307;28;20046;-77
2023/07/20 01:47:52;;;;;;;7.50;5.40;;;;;;;;;;4995804;28;20046;-77
2023/07/20 01:50:18;;;;;;;6.55;4.82;;;;;;;;;;4979344;28;20367;-77
2023/07/20 01:52:44;;;;;;;5.95;4.57;;;;;;;;;;4979802;28;20434;-77
2023/07/20 01:55:11;;;;;;;5.43;4.45;;;;;;;;;;4995188;28;20041;-77
2023/07/20 01:57:37;;;;;;;5.53;4.53;;;;;;;;;;5013212;28;20057;-77
2023/07/20 02:00:03;;;;;;;5.93;4.90;;;;;;;;;;4995808;28;20111;-77
2023/07/20 02:02:29;;;;;;;8.30;5.63;;;;;;;;;;4978206;28;20046;-77
2023/07/20 02:04:56;;;;;;;9.05;5.28;;;;;;;;;;4995392;28;20463;-77
2023/07/20 02:07:22;;;;;;;6.30;5.07;;;;;;;;;;4994242;28;20048;-77
2023/07/20 02:09:48;;;;;;;6.30;4.88;;;;;;;;;;4995279;28;21180;-77
2023/07/20 02:12:14;;;;;;;6.05;4.55;;;;;;;;;;4995039;28;20128;-77
2023/07/20 02:14:40;;;;;;;7.10;5.00;;;;;;;;;;4995368;28;20044;-78
2023/07/20 02:17:06;;;;;;;5.60;4.47;;;;;;;;;;4995335;28;20049;-77
2023/07/20 02:19:32;;;;;;;6.65;5.00;;;;;;;;;;4995461;28;20521;-77
2023/07/20 02:21:58;;;;;;;6.18;4.47;;;;;;;;;;4995809;28;20037;-77
2023/07/20 02:24:25;;;;;;;4.95;3.72;;;;;;;;;;4994352;28;20513;-77
2023/07/20 02:26:51;;;;;;;11.77;4.13;;;;;;;;;;4995262;28;20049;-77
2023/07/20 02:29:17;;;;;;;5.00;3.90;;;;;;;;;;4994989;28;20045;-77
2023/07/20 02:31:43;;;;;;;4.07;3.13;;;;;;;;;;5012783;28;20498;-77
2023/07/20 02:34:10;;;;;;;4.93;4.07;;;;;;;;;;4995277;28;20042;-77
2023/07/20 02:36:36;;;;;;;5.55;4.13;;;;;;;;;;4994646;28;20042;-77
2023/07/20 02:39:03;;;;;;;3.83;3.13;;;;;;;;;;5012768;28;20184;-76
2023/07/20 02:41:30;;;;;;;3.88;2.60;;;;;;;;;;5012383;28;20045;-77
2023/07/20 02:43:57;;;;;;;3.50;2.67;;;;;;;;;;4979244;28;20042;-77
2023/07/20 02:46:23;;;;;;;4.90;4.13;;;;;;;;;;4994292;28;20042;-77
2023/07/20 02:48:49;;;;;;;4.63;3.70;;;;;;;;;;4995044;28;20109;-78
2023/07/20 02:51:15;;;;;;;8.60;3.90;;;;;;;;;;5012083;28;20117;-78
2023/07/20 02:53:41;;;;;;;5.65;4.07;;;;;;;;;;4978741;28;20047;-77
2023/07/20 02:56:07;;;;;;;5.18;4.13;;;;;;;;;;4994675;28;20038;-77
2023/07/20 02:58:38;;;;;;;6.43;4.30;;;;;;;;;;4994741;28;20578;-77
2023/07/20 03:01:04;;;;;;;5.05;4.03;;;;;;;;;;4994818;28;20046;-77
2023/07/20 03:03:30;;;;;;;3.45;2.58;;;;;;;;;;4994435;28;20080;-77
2023/07/20 03:05:57;;;;;;;5.10;3.50;;;;;;;;;;4994412;28;20042;-77
2023/07/20 03:08:24;;;;;;;4.75;3.42;;;;;;;;;;5011974;28;20060;-77
2023/07/20 03:10:50;;;;;;;5.68;3.90;;;;;;;;;;4994533;28;20054;-77
2023/07/20 03:13:16;;;;;;;4.30;3.53;;;;;;;;;;5012161;28;20434;-77
2023/07/20 03:15:42;;;;;;;5.88;4.25;;;;;;;;;;4994673;28;20430;-77
2023/07/20 03:18:08;;;;;;;4.20;3.47;;;;;;;;;;4994915;28;20434;-77
2023/07/20 03:20:36;;;;;;;4.97;3.80;;;;;;;;;;5012207;28;20414;-77
2023/07/20 03:23:02;;;;;;;4.93;3.80;;;;;;;;;;5012312;28;20069;-77
2023/07/20 03:25:28;;;;;;;4.93;3.90;;;;;;;;;;4994140;28;20124;-77
2023/07/20 03:27:54;;;;;;;4.45;3.00;;;;;;;;;;4994116;28;20042;-77
2023/07/20 03:30:21;;;;;;;4.72;3.40;;;;;;;;;;4994144;28;20042;-76
2023/07/20 03:32:47;;;;;;;5.15;3.58;;;;;;;;;;4994604;28;20459;-77
2023/07/20 03:35:15;;;;;;;3.67;2.90;;;;;;;;;;4978300;28;20045;-77
2023/07/20 03:37:42;;;;;;;6.68;3.70;;;;;;;;;;4997936;28;20458;-77
2023/07/20 03:40:08;;;;;;;6.85;3.40;;;;;;;;;;4982092;28;20049;-77
2023/07/20 03:42:34;;;;;;;10.13;4.13;;;;;;;;;;4981634;28;20038;-77
2023/07/20 03:45:00;;;;;;;4.05;3.17;;;;;;;;;;4998608;28;20092;-77
2023/07/20 03:47:26;;;;;;;3.50;2.83;;;;;;;;;;4997639;28;20100;-77
2023/07/20 03:49:52;;;;;;;4.13;3.30;;;;;;;;;;4997980;28;20045;-77
2023/07/20 03:52:18;;;;;;;4.25;3.55;;;;;;;;;;4997786;28;20044;-77
2023/07/20 03:54:45;;;;;;;4.13;3.28;;;;;;;;;;4997856;28;20123;-77
2023/07/20 03:57:11;;;;;;;4.53;3.22;;;;;;;;;;4981879;28;20518;-77
2023/07/20 03:59:41;;;;;;;4.85;3.63;;;;;;;;;;4997630;28;20077;-77
2023/07/20 04:02:07;;;;;;;3.83;2.60;;;;;;;;;;4996679;28;20088;-77
2023/07/20 04:04:33;;;;;;;4.65;1.92;;;;;;;;;;5015550;28;20037;-77
2023/07/20 04:06:59;;;;;;;56.85;2.05;;;;;;;;;;4997439;28;20510;-77
2023/07/20 04:09:25;;;;;;;5.75;1.50;;;;;;;;;;5015012;28;20510;-77
2023/07/20 04:11:51;;;;;;;16.90;2.22;;;;;;;;;;5015214;28;20499;-77
2023/07/20 04:14:17;;;;;;;40.15;4.13;;;;;;;;;;4981606;28;20439;-77
2023/07/20 04:16:43;;;;;;;5.18;2.47;;;;;;;;;;4997279;28;20510;-77
2023/07/20 04:19:09;;;;;;;3.13;2.13;;;;;;;;;;4997316;28;20046;-77
2023/07/20 04:21:41;;;;;;;3.72;2.72;;;;;;;;;;5014795;28;20519;-77
2023/07/20 04:24:07;;;;;;;4.45;2.30;;;;;;;;;;4997978;28;20405;-77
2023/07/20 04:26:33;;;;;;;4.28;3.13;;;;;;;;;;4997186;28;20454;-77
2023/07/20 04:28:59;;;;;;;4.20;3.08;;;;;;;;;;4997451;28;20512;-77
2023/07/20 04:31:25;;;;;;;4.07;3.33;;;;;;;;;;4997338;28;20046;-77
2023/07/20 04:33:51;;;;;;;5.15;3.38;;;;;;;;;;4997074;28;20080;-77
2023/07/20 04:36:19;;;;;;;5.13;3.40;;;;;;;;;;4997107;28;20073;-77
2023/07/20 04:38:48;;;;;;;4.15;3.33;;;;;;;;;;5014480;28;20053;-77
2023/07/20 04:41:14;;;;;;;6.22;3.50;;;;;;;;;;4997037;28;20073;-77
2023/07/20 04:43:44;;;;;;;3.80;3.10;;;;;;;;;;4996926;28;20037;-77
2023/07/20 04:46:11;;;;;;;4.03;3.00;;;;;;;;;;4997239;28;20076;-77
2023/07/20 04:48:37;;;;;;;4.07;3.00;;;;;;;;;;4995912;28;20502;-77
2023/07/20 04:51:03;;;;;;;3.53;2.78;;;;;;;;;;4997251;28;20499;-77
2023/07/20 04:53:30;;;;;;;5.55;2.83;;;;;;;;;;5014191;28;20080;-78
2023/07/20 04:55:57;;;;;;;6.03;3.10;;;;;;;;;;4997199;28;20046;-77
2023/07/20 04:58:23;;;;;;;4.43;3.30;;;;;;;;;;4980590;28;20095;-78
2023/07/20 05:00:49;;;;;;;4.20;3.20;;;;;;;;;;4996257;28;20057;-78
2023/07/20 05:03:15;;;;;;;5.15;3.10;;;;;;;;;;4996758;28;20132;-77
2023/07/20 05:05:41;;;;;;;3.67;3.00;;;;;;;;;;4979955;28;20104;-78
2023/07/20 05:08:08;;;;;;;3.47;2.50;;;;;;;;;;4996356;28;20057;-78
2023/07/20 05:10:34;;;;;;;3.90;2.72;;;;;;;;;;4996150;28;20530;-78
2023/07/20 05:13:00;;;;;;;3.55;2.83;;;;;;;;;;4996688;28;20042;-77
2023/07/20 05:15:26;;;;;;;3.85;2.58;;;;;;;;;;4980667;28;20046;-77
2023/07/20 05:17:52;;;;;;;3.00;2.70;;;;;;;;;;4995778;28;20096;-77
2023/07/20 05:20:18;;;;;;;5.43;2.60;;;;;;;;;;4996607;28;20049;-78
2023/07/20 05:22:44;;;;;;;3.70;2.50;;;;;;;;;;4979731;28;20046;-78
2023/07/20 05:25:11;;;;;;;4.88;2.50;;;;;;;;;;4996367;28;20046;-78
2023/07/20 05:27:37;;;;;;;5.70;2.38;;;;;;;;;;4995823;28;20050;-78
2023/07/20 05:30:04;;;;;;;4.32;2.60;;;;;;;;;;4980010;28;20037;-77
2023/07/20 05:32:30;;;;;;;5.63;2.60;;;;;;;;;;4980233;28;20069;-78
2023/07/20 05:34:56;;;;;;;4.65;3.38;;;;;;;;;;4995594;28;20053;-77
2023/07/20 05:37:22;;;;;;;4.03;3.00;;;;;;;;;;4996067;28;20049;-77
2023/07/20 05:39:48;;;;;;;4.15;2.58;;;;;;;;;;4995700;28;20125;-77
2023/07/20 05:42:14;;;;;;;6.38;3.03;;;;;;;;;;4995935;28;20038;-77
2023/07/20 05:44:41;;;;;;;3.83;2.60;;;;;;;;;;4979490;28;20399;-77
2023/07/20 05:47:07;;;;;;;5.88;2.42;;;;;;;;;;4995749;28;20049;-78
2023/07/20 05:49:33;;;;;;;3.63;2.47;;;;;;;;;;4995708;28;20117;-78
2023/07/20 05:52:00;;;;;;;3.33;2.40;;;;;;;;;;4995360;28;20038;-78
2023/07/20 05:54:27;;;;;;;3.90;2.50;;;;;;;;;;5013363;28;20486;-77
2023/07/20 05:56:53;;;;;;;5.55;2.50;;;;;;;;;;5013313;28;20042;-76
2023/07/20 05:59:19;;;;;;;3.13;2.45;;;;;;;;;;4995790;28;20398;-78
2023/07/20 06:01:48;;;;;;;4.35;2.35;;;;;;;;;;4979369;28;20487;-78
2023/07/20 06:04:14;;;;;;;3.17;2.28;;;;;;;;;;5013641;28;20113;-78
2023/07/20 06:06:40;;;;;;;4.35;2.30;;;;;;;;;;4994943;28;20038;-78
2023/07/20 06:09:11;;;;;;;3.65;1.90;;;;;;;;;;4995269;28;20133;-75
2023/07/20 06:11:37;;;;;;;3.03;2.00;;;;;;;;;;4995383;28;20464;-76
2023/07/20 06:14:03;;;;;;;2.38;1.60;;;;;;;;;;4995007;28;20050;-76
2023/07/20 06:16:29;;;;;;;5.10;2.13;;;;;;;;;;4995327;28;20033;-77
2023/07/20 06:18:56;;;;;;;4.47;1.60;;;;;;;;;;4995052;28;20387;-76
2023/07/20 06:21:22;;;;;;;4.15;1.40;;;;;;;;;;4979534;28;20038;-77
2023/07/20 06:23:48;;;;;;;2.40;1.00;;;;;;;;;;5012817;28;20037;-77
2023/07/20 06:26:14;;;;;;;2.22;1.02;;;;;;;;;;4995145;28;20116;-76
2023/07/20 06:28:41;;;;;;;4.10;1.10;;;;;;;;;;4994735;28;20491;-76
2023/07/20 06:31:08;;;;;;;2.30;1.10;;;;;;;;;;4979137;28;20099;-77
2023/07/20 06:33:36;;;;;;;3.63;1.05;;;;;;;;;;4995171;28;20037;-76
2023/07/20 06:36:02;;;;;;;2.45;1.10;;;;;;;;;;4979088;28;20507;-76
2023/07/20 06:38:29;;;;;;;3.17;1.10;;;;;;;;;;4995356;28;20497;-77
2023/07/20 06:40:55;;;;;;;1.88;0.80;;;;;;;;;;4994852;28;20490;-77
2023/07/20 06:43:21;;;;;;;2.97;1.40;;;;;;;;;;4995243;28;20061;-77
2023/07/20 06:45:54;;;;;;;9.98;1.30;;;;;;;;;;4962796;28;20442;-78
2023/07/20 06:48:20;;;;;;;3.53;1.10;;;;;;;;;;4994890;28;20399;-78
2023/07/20 06:50:46;;;;;;;4.82;1.42;;;;;;;;;;4994617;28;20049;-78
2023/07/20 06:53:12;;;;;;;3.72;1.13;;;;;;;;;;4995131;28;20038;-78
2023/07/20 06:55:39;;;;;;;3.88;0.88;;;;;;;;;;4994769;28;20069;-78
2023/07/20 06:58:05;;;;;;;2.60;0.75;;;;;;;;;;4994705;28;20059;-78
2023/07/20 07:00:31;;;;;;;1.88;0.68;;;;;;;;;;4994862;28;20507;-78
2023/07/20 07:02:57;;;;;;;3.05;0.73;;;;;;;;;;4994498;28;20038;-78
2023/07/20 07:05:23;;;;;;;4.30;0.98;;;;;;;;;;4994742;28;20045;-77
2023/07/20 07:07:49;;;;;;;1.65;0.70;;;;;;;;;;4994238;28;20050;-77
2023/07/20 07:10:16;;;;;;;2.10;0.90;;;;;;;;;;4994718;28;20515;-77
2023/07/20 07:12:42;;;;;;;2.88;1.02;;;;;;;;;;4998634;28;20097;-77
2023/07/20 07:15:10;;;;;;;2.88;0.90;;;;;;;;;;4998413;28;20071;-78
2023/07/20 07:17:36;;;;;;;2.70;0.90;;;;;;;;;;4998689;28;20062;-76
2023/07/20 07:20:03;;;;;;;2.60;0.90;;;;;;;;;;4998421;28;20410;-77
2023/07/20 07:22:30;;;;;;;2.50;1.00;;;;;;;;;;4982234;28;20053;-76
2023/07/20 07:24:56;;;;;;;3.15;0.90;;;;;;;;;;4998089;28;20111;-78
2023/07/20 07:27:22;;;;;;;3.45;1.08;;;;;;;;;;5016061;28;20561;-77
2023/07/20 07:29:49;;;;;;;2.08;0.90;;;;;;;;;;4998305;28;20038;-77
2023/07/20 07:32:15;;;;;;;2.80;0.98;;;;;;;;;;4998480;28;20058;-77
2023/07/20 07:34:42;;;;;;;3.85;0.90;;;;;;;;;;4998520;28;20766;-77
2023/07/20 07:37:08;;;;;;;2.97;0.80;;;;;;;;;;4981931;28;20038;-77
2023/07/20 07:39:34;;;;;;;2.58;0.90;;;;;;;;;;4998652;28;20153;-77
2023/07/20 07:42:00;;;;;;;3.05;1.00;;;;;;;;;;4997700;28;20049;-78
2023/07/20 07:44:26;;;;;;;4.22;1.20;;;;;;;;;;4998186;28;20045;-78
2023/07/20 07:46:53;;;;;;;3.05;1.00;;;;;;;;;;4997738;28;20490;-78
2023/07/20 07:49:19;;;;;;;2.85;1.13;;;;;;;;;;4997999;28;20121;-77
2023/07/20 07:51:46;;;;;;;4.25;1.30;;;;;;;;;;4998100;28;20078;-77
2023/07/20 07:54:12;;;;;;;2.78;0.98;;;;;;;;;;4997780;28;20456;-78
2023/07/20 07:56:38;;;;;;;1.75;1.08;;;;;;;;;;4997941;28;20046;-77
2023/07/20 07:59:04;;;;;;;3.65;1.10;;;;;;;;;;4997436;28;20041;-77
2023/07/20 08:01:30;;;;;;;5.38;1.20;;;;;;;;;;4997824;28;20046;-78
2023/07/20 08:03:57;;;;;;;4.20;1.15;;;;;;;;;;4997415;28;20115;-77
2023/07/20 08:06:23;;;;;;;4.47;1.00;;;;;;;;;;4997652;28;20033;-77
2023/07/20 08:08:50;;;;;;;3.85;1.00;;;;;;;;;;4997915;28;20412;-78
2023/07/20 08:11:17;;;;;;;5.43;1.02;;;;;;;;;;4997011;28;20046;-77
2023/07/20 08:13:43;;;;;;;3.08;1.15;;;;;;;;;;4997374;28;20069;-78
2023/07/20 08:16:09;;;;;;;4.80;1.00;;;;;;;;;;4996956;28;20042;-78
2023/07/20 08:18:35;;;;;;;2.22;0.90;;;;;;;;;;4997545;28;20096;-78
2023/07/20 08:21:02;;;;;;;5.57;1.17;;;;;;;;;;4997097;28;20380;-78
2023/07/20 08:23:28;;;;;;;3.78;1.08;;;;;;;;;;4996267;28;20042;-78
2023/07/20 08:25:55;;;;;;;2.85;1.00;;;;;;;;;;4997493;28;20081;-78
2023/07/20 08:28:21;;;;;;;2.45;0.90;;;;;;;;;;4996977;28;20121;-79
2023/07/20 08:30:48;;;;;;;3.20;0.90;;;;;;;;;;4997571;28;20426;-78
2023/07/20 08:33:14;;;;;;;4.20;1.20;;;;;;;;;;4996873;28;20041;-79
2023/07/20 08:35:41;;;;;;;4.80;1.17;;;;;;;;;;4980980;28;20038;-78
2023/07/20 08:38:07;;;;;;;3.50;0.90;;;;;;;;;;4980743;28;20136;-78
2023/07/20 08:40:34;;;;;;;2.75;1.00;;;;;;;;;;4997213;28;20108;-78
2023/07/20 08:43:00;;;;;;;3.58;1.10;;;;;;;;;;4996830;28;20096;-78
2023/07/20 08:45:31;;;;;;;5.03;0.90;;;;;;;;;;4997508;28;20479;-78
2023/07/20 08:47:59;;;;;;;3.55;1.10;;;;;;;;;;4996953;28;20104;-78
2023/07/20 08:50:30;;;;;;;3.40;0.80;;;;;;;;;;4996869;28;20033;-78
2023/07/20 08:52:58;;;;;;;5.32;1.30;;;;;;;;;;5014412;28;20506;-78
2023/07/20 08:55:24;;;;;;;4.10;1.00;;;;;;;;;;4996575;28;20050;-78
2023/07/20 08:57:51;;;;;;;3.47;0.80;;;;;;;;;;4997067;28;20491;-78
2023/07/20 09:00:17;;;;;;;4.63;0.90;;;;;;;;;;4980255;28;20042;-78
2023/07/20 09:02:45;;;;;;;2.20;0.93;;;;;;;;;;5014384;28;20069;-78
2023/07/20 09:05:14;;;;;;;2.78;0.70;;;;;;;;;;4996257;28;20125;-78
2023/07/20 09:07:40;;;;;;;3.88;0.90;;;;;;;;;;4996499;28;20049;-78
2023/07/20 09:10:07;;;;;;;3.92;0.80;;;;;;;;;;5013531;28;20061;-77
2023/07/20 09:12:37;;;;;;;2.83;0.88;;;;;;;;;;4996555;28;20042;-78
2023/07/20 09:15:04;;;;;;;2.85;1.05;;;;;;;;;;4997014;28;20426;-77
2023/07/20 09:17:30;;;;;;;1.58;0.70;;;;;;;;;;4996258;28;20096;-78
2023/07/20 09:19:56;;;;;;;2.08;0.80;;;;;;;;;;4996301;28;20048;-78
2023/07/20 09:22:22;;;;;;;2.38;0.80;;;;;;;;;;4979696;28;20053;-78
2023/07/20 09:24:49;;;;;;;2.90;0.93;;;;;;;;;;4996416;28;20046;-78
2023/07/20 09:27:15;;;;;;;3.92;0.90;;;;;;;;;;5013390;28;20499;-78
2023/07/20 09:29:50;;;;;;;5.00;1.13;;;;;;;;;;4996094;28;20042;-78
2023/07/20 09:32:20;;;;;;;7.00;1.40;;;;;;;;;;4995797;28;20045;-78
2023/07/20 09:34:46;;;;;;;2.67;0.98;;;;;;;;;;4996513;28;20042;-78
2023/07/20 09:37:12;;;;;;;2.72;0.70;;;;;;;;;;5013287;28;20064;-78
2023/07/20 09:39:45;;;;;;;2.33;0.60;;;;;;;;;;4996301;28;20045;-78
2023/07/20 09:42:15;;;;;;;3.40;0.80;;;;;;;;;;4995638;28;20045;-79
2023/07/20 09:44:44;;;;;;;1.88;0.70;;;;;;;;;;4996048;28;20115;-78
2023/07/20 09:47:10;;;;;;;12.45;1.45;;;;;;;;;;4995408;28;20049;-79
2023/07/20 09:49:40;;;;;;;17.27;1.85;;;;;;;;;;4995753;28;20042;-78
2023/07/20 09:52:07;;;;;;;3.38;0.85;;;;;;;;;;4995560;28;20037;-78
2023/07/20 09:54:34;;;;;;;3.95;1.00;;;;;;;;;;4995970;28;20069;-78
2023/07/20 09:57:00;;;;;;;13.07;2.10;;;;;;;;;;4996099;28;20037;-78
2023/07/20 09:59:26;;;;;;;19.63;1.83;;;;;;;;;;4979551;28;20513;-78
2023/07/20 10:01:54;;;;;;;11.30;1.52;;;;;;;;;;4979321;28;20108;-78
2023/07/20 10:04:22;;;;;;;34.20;3.78;;;;;;;;;;5012617;28;20042;-78
2023/07/20 10:06:49;;;;;;;2.22;0.80;;;;;;;;;;4995437;28;20096;-78
2023/07/20 10:09:16;;;;;;;3.00;0.73;;;;;;;;;;4995172;28;20415;-78
2023/07/20 10:11:44;;;;;;;4.38;0.80;;;;;;;;;;4979170;28;20557;-78
2023/07/20 10:14:12;;;;;;;4.05;1.10;;;;;;;;;;4995491;28;20520;-78
2023/07/20 10:16:41;;;;;;;3.30;0.60;;;;;;;;;;4995307;28;20038;-79
2023/07/20 10:19:11;;;;;;;5.35;0.95;;;;;;;;;;4995099;28;20100;-78
2023/07/20 10:21:41;;;;;;;2.75;0.70;;;;;;;;;;4995166;28;20088;-78
2023/07/20 10:24:07;;;;;;;2.10;0.80;;;;;;;;;;4995397;28;20511;-78
2023/07/20 10:26:33;;;;;;;1.48;0.70;;;;;;;;;;4994622;28;20042;-78
2023/07/20 10:29:00;;;;;;;10.07;1.35;;;;;;;;;;4995322;28;20462;-78
2023/07/20 10:31:28;;;;;;;4.13;1.05;;;;;;;;;;4994546;28;20042;-78
2023/07/20 10:33:55;;;;;;;15.20;2.10;;;;;;;;;;4994967;28;20104;-78
2023/07/20 10:36:28;;;;;;;21.65;2.85;;;;;;;;;;4978605;28;20092;-78
2023/07/20 10:38:55;;;;;;;3.30;0.70;;;;;;;;;;4995092;28;20056;-78
2023/07/20 10:41:21;;;;;;;2.80;0.60;;;;;;;;;;4994708;28;20491;-78
2023/07/20 10:43:49;;;;;;;4.05;0.60;;;;;;;;;;4995047;28;20050;-78
2023/07/20 10:46:15;;;;;;;4.00;0.77;;;;;;;;;;4994209;28;20046;-78
2023/07/20 10:49:00;;;;;;;2.90;0.70;;;;;;;;;;4981264;28;20046;-78
2023/07/20 10:51:27;;;;;;;2.08;0.73;;;;;;;;;;4978315;28;20121;-78
2023/07/20 10:53:54;;;;;;;2.17;0.70;;;;;;;;;;4995037;28;20510;-77
2023/07/20 10:56:21;;;;;;;2.28;0.85;;;;;;;;;;5012141;28;20038;-77
2023/07/20 10:58:47;;;;;;;3.83;0.70;;;;;;;;;;4995063;28;20050;-77
2023/07/20 11:01:14;;;;;;;2.70;0.93;;;;;;;;;;4994841;28;20048;-78
2023/07/20 11:03:40;;;;;;;2.03;0.60;;;;;;;;;;4994476;28;20045;-78
2023/07/20 11:06:25;;;;;;;2.17;0.88;;;;;;;;;;4994628;28;20057;-78
2023/07/20 11:09:04;;;;;;;3.00;1.00;;;;;;;;;;4992433;28;20147;-77
2023/07/20 11:11:31;;;;;;;8.68;1.30;;;;;;;;;;4990468;28;20047;-77
2023/07/20 11:13:58;;;;;;;3.92;1.00;;;;;;;;;;4990907;28;20181;-78
2023/07/20 11:16:43;;;;;;;11.10;1.30;;;;;;;;;;4988035;28;20373;-80
2023/07/20 11:19:19;;;;;;;6.13;1.10;;;;;;;;;;4991980;28;20043;-78
2023/07/20 11:21:46;;;;;;;6.38;1.35;;;;;;;;;;5005447;28;20499;-78
2023/07/20 11:24:13;;;;;;;5.28;1.10;;;;;;;;;;4986320;28;20076;-78
2023/07/20 11:26:43;;;;;;;3.75;1.10;;;;;;;;;;4991536;28;20070;-78
2023/07/20 11:29:09;;;;;;;4.80;1.08;;;;;;;;;;4982934;28;20108;-78
2023/07/20 11:31:35;;;;;;;4.95;1.23;;;;;;;;;;4989657;28;20077;-78
2023/07/20 11:34:02;;;;;;;2.08;0.90;;;;;;;;;;4988861;28;20081;-78
2023/07/20 11:36:28;;;;;;;5.50;1.10;;;;;;;;;;4973325;28;20041;-79
2023/07/20 11:38:54;;;;;;;3.22;1.00;;;;;;;;;;4982409;28;20462;-80
2023/07/20 11:41:21;;;;;;;2.85;0.90;;;;;;;;;;4994765;28;20395;-79
2023/07/20 11:43:47;;;;;;;2.22;0.80;;;;;;;;;;4986536;28;20504;-79
2023/07/20 11:46:15;;;;;;;5.15;0.80;;;;;;;;;;4983671;28;20463;-79
2023/07/20 11:48:42;;;;;;;2.20;0.70;;;;;;;;;;4990358;28;20129;-78
2023/07/20 11:51:14;;;;;;;2.85;0.80;;;;;;;;;;4972228;28;20034;-79
2023/07/20 11:53:40;;;;;;;2.28;0.73;;;;;;;;;;4990402;28;20038;-81
2023/07/20 11:56:08;;;;;;;1.63;0.60;;;;;;;;;;4971949;28;20046;-80
2023/07/20 11:58:34;;;;;;;2.22;0.70;;;;;;;;;;4993618;28;20092;-85
2023/07/20 12:01:00;;;;;;;9.05;0.95;;;;;;;;;;4976839;28;20042;-81
2023/07/20 12:03:27;;;;;;;7.50;0.88;;;;;;;;;;4996634;28;20038;-82
2023/07/20 12:05:53;;;;;;;2.60;0.85;;;;;;;;;;4978181;28;20050;-83
2023/07/20 12:08:19;;;;;;;5.22;0.90;;;;;;;;;;4994152;28;20427;-82
2023/07/20 12:10:46;;;;;;;4.43;0.80;;;;;;;;;;4980315;28;20570;-82
2023/07/20 12:13:12;;;;;;;8.30;0.90;;;;;;;;;;4977410;28;20052;-81
2023/07/20 12:15:38;;;;;;;2.85;0.88;;;;;;;;;;4997368;28;20042;-83
2023/07/20 12:18:05;;;;;;;3.75;0.80;;;;;;;;;;4974749;28;20106;-82
2023/07/20 12:20:33;;;;;;;2.22;0.77;;;;;;;;;;4991293;28;20554;-82
2023/07/20 12:23:08;;;;;;;5.95;0.75;;;;;;;;;;4994504;28;20121;-82
2023/07/20 12:25:42;;;;;;;12.90;1.23;;;;;;;;;;4993774;28;20096;-82
2023/07/20 12:28:18;;;;;;;12.50;1.33;;;;;;;;;;4994026;28;20125;-82
2023/07/20 12:30:45;;;;;;;10.90;1.02;;;;;;;;;;5007532;28;20077;-82
2023/07/20 12:33:15;;;;;;;15.98;1.30;;;;;;;;;;4994273;28;20100;-81
2023/07/20 12:35:43;;;;;;;13.13;1.30;;;;;;;;;;4977568;28;20077;-82
2023/07/20 12:38:09;;;;;;;19.67;1.42;;;;;;;;;;4993774;28;20089;-82
2023/07/20 12:40:36;;;;;;;11.20;1.15;;;;;;;;;;4993502;28;20038;-82
2023/07/20 12:43:02;;;;;;;3.30;0.80;;;;;;;;;;4993692;28;20502;-83
2023/07/20 12:45:28;;;;;;;11.02;1.20;;;;;;;;;;4995175;28;20114;-83
2023/07/20 12:47:54;;;;;;;12.65;1.52;;;;;;;;;;4994586;28;20122;-82
2023/07/20 12:50:20;;;;;;;1.23;0.45;;;;;;;;;;4992172;28;20088;-81
2023/07/20 12:52:46;;;;;;;2.67;0.60;;;;;;;;;;4993371;28;20182;-81
2023/07/20 12:55:12;;;;;;;1.30;0.50;;;;;;;;;;4993054;28;20491;-81
2023/07/20 12:57:38;;;;;;;1.90;0.50;;;;;;;;;;4993350;28;20034;-81
2023/07/20 13:00:05;;;;;;;3.53;0.60;;;;;;;;;;4993831;28;20503;-82
2023/07/20 13:02:32;;;;;;;4.25;0.77;;;;;;;;;;4994781;28;20373;-82
2023/07/20 13:04:58;;;;;;;2.08;0.60;;;;;;;;;;4992961;28;20046;-81
2023/07/20 13:07:32;;;;;;;3.90;0.70;;;;;;;;;;4993648;28;20056;-81
2023/07/20 13:10:00;;;;;;;1.15;0.60;;;;;;;;;;4993899;28;20093;-80
2023/07/20 13:12:26;;;;;;;2.13;0.70;;;;;;;;;;4996723;28;20542;-81
2023/07/20 13:14:52;;;;;;;3.22;0.60;;;;;;;;;;4982633;28;20044;-81
2023/07/20 13:17:18;;;;;;;3.13;0.80;;;;;;;;;;4998591;28;20046;-82
2023/07/20 13:19:44;;;;;;;8.23;0.90;;;;;;;;;;4990771;28;20053;-81
2023/07/20 13:22:11;;;;;;;2.20;0.50;;;;;;;;;;4980044;28;20124;-81
2023/07/20 13:24:37;;;;;;;23.42;2.20;;;;;;;;;;4979807;28;20058;-81
2023/07/20 13:27:03;;;;;;;13.82;1.70;;;;;;;;;;4996221;28;20112;-81
2023/07/20 13:29:29;;;;;;;3.10;0.82;;;;;;;;;;4964550;28;20041;-81
2023/07/20 13:31:55;;;;;;;26.20;3.97;;;;;;;;;;4979585;28;20049;-81
2023/07/20 13:34:21;;;;;;;21.33;2.95;;;;;;;;;;4986476;28;20045;-81
2023/07/20 13:36:47;;;;;;;11.20;1.25;;;;;;;;;;4979647;28;20451;-78
2023/07/20 13:39:13;;;;;;;34.97;3.28;;;;;;;;;;4996426;28;20049;-79
2023/07/20 13:41:39;;;;;;;2.65;0.70;;;;;;;;;;4995942;28;20491;-84
2023/07/20 13:44:05;;;;;;;7.25;0.93;;;;;;;;;;4996122;28;20560;-79
2023/07/20 13:46:31;;;;;;;1.42;0.65;;;;;;;;;;5012813;28;20464;-80
2023/07/20 13:48:57;;;;;;;4.32;0.73;;;;;;;;;;4995251;28;20490;-80
2023/07/20 13:51:24;;;;;;;2.38;0.65;;;;;;;;;;4994313;28;20117;-79
2023/07/20 13:53:50;;;;;;;4.20;0.70;;;;;;;;;;4995111;28;20046;-79
2023/07/20 13:56:16;;;;;;;4.13;0.70;;;;;;;;;;4976110;28;20034;-79
2023/07/20 13:58:42;;;;;;;3.65;0.70;;;;;;;;;;4989661;28;20038;-79
2023/07/20 14:01:08;;;;;;;1.50;0.77;;;;;;;;;;5013244;28;20474;-79
2023/07/20 14:03:34;;;;;;;2.40;0.80;;;;;;;;;;4995349;28;20037;-79
2023/07/20 14:06:00;;;;;;;2.22;0.80;;;;;;;;;;4995081;28;20038;-79
2023/07/20 14:08:26;;;;;;;1.65;0.60;;;;;;;;;;4987965;28;20046;-79
2023/07/20 14:10:53;;;;;;;8.30;1.00;;;;;;;;;;4975470;28;20085;-80
2023/07/20 14:13:19;;;;;;;2.33;0.60;;;;;;;;;;4992727;28;20041;-79
2023/07/20 14:15:45;;;;;;;2.42;0.60;;;;;;;;;;4994502;28;20042;-79
2023/07/20 14:18:11;;;;;;;1.52;0.73;;;;;;;;;;4995014;28;20056;-80
2023/07/20 14:20:37;;;;;;;5.97;0.70;;;;;;;;;;4993103;28;20510;-79
2023/07/20 14:23:03;;;;;;;5.05;0.65;;;;;;;;;;4994862;28;20541;-79
2023/07/20 14:25:29;;;;;;;3.25;0.75;;;;;;;;;;4995045;28;20131;-79
2023/07/20 14:27:55;;;;;;;1.92;0.70;;;;;;;;;;4978384;28;20041;-79
2023/07/20 14:30:21;;;;;;;2.00;0.63;;;;;;;;;;4995178;28;20146;-79
2023/07/20 14:32:48;;;;;;;3.25;0.90;;;;;;;;;;4976961;28;20048;-79
2023/07/20 14:35:14;;;;;;;4.32;0.60;;;;;;;;;;4986639;28;20117;-79
2023/07/20 14:37:40;;;;;;;4.18;0.70;;;;;;;;;;4986269;28;20046;-80
2023/07/20 14:40:07;;;;;;;2.38;0.90;;;;;;;;;;4994864;28;20045;-80
2023/07/20 14:42:33;;;;;;;3.55;0.70;;;;;;;;;;4994920;28;20073;-80